TimeEST,TemperatureF,Dew PointF,Humidity,Sea Level PressureIn,VisibilityMPH,Wind Direction,Wind SpeedMPH,Gust SpeedMPH,PrecipitationIn,Events,Conditions,WindDirDegrees,DateUTC
6:17 AM,33.8,30.2,87,30.46,7.0,South,4.6,-,N/A,,Overcast,170,2013-01-28 11:17:00
6:37 AM,35.6,30.2,81,30.47,7.0,Calm,Calm,-,N/A,,Scattered Clouds,0,2013-01-28 11:37:00
6:57 AM,33.8,30.2,87,30.47,7.0,Calm,Calm,-,N/A,,Clear,0,2013-01-28 11:57:00
7:17 AM,33.8,30.2,87,30.48,7.0,Calm,Calm,-,N/A,,Mostly Cloudy,0,2013-01-28 12:17:00
7:37 AM,33.8,30.2,87,30.48,7.0,South,4.6,-,N/A,,Overcast,190,2013-01-28 12:37:00
7:57 AM,33.8,30.2,87,30.49,5.0,SSW,3.5,-,N/A,,Overcast,210,2013-01-28 12:57:00
8:17 AM,33.8,30.2,87,30.48,5.0,SW,3.5,-,N/A,,Mist,220,2013-01-28 13:17:00
8:35 AM,34.9,31.5,87,30.48,7.0,SW,4.6,-,N/A,,Mostly Cloudy,220,2013-01-28 13:35:00
8:55 AM,35.6,30.7,82,30.48,7.0,SSW,5.8,-,N/A,,Overcast,200,2013-01-28 13:55:00
8:56 AM,35.6,30.2,81,30.48,7.0,South,5.8,-,N/A,,Overcast,190,2013-01-28 13:56:00
9:15 AM,35.8,31.1,83,30.47,7.0,South,4.6,-,N/A,,Overcast,180,2013-01-28 14:15:00
9:35 AM,36.9,30.6,78,30.47,10.0,Calm,Calm,-,N/A,,Overcast,0,2013-01-28 14:35:00
10:15 AM,38.5,31.1,75,30.46,10.0,SW,4.6,-,N/A,,Overcast,220,2013-01-28 15:15:00
10:35 AM,39.6,30.4,70,30.46,10.0,SW,5.8,-,N/A,,Overcast,220,2013-01-28 15:35:00
10:55 AM,40.8,30.6,67,30.45,10.0,SSW,4.6,-,N/A,,Mostly Cloudy,200,2013-01-28 15:55:00
11:15 AM,41.9,30.2,63,30.44,10.0,WSW,4.6,-,N/A,,Mostly Cloudy,240,2013-01-28 16:15:00
11:35 AM,42.3,30.2,62,30.44,10.0,SW,5.8,-,N/A,,Overcast,220,2013-01-28 16:35:00
11:55 AM,41.9,30.6,64,30.43,10.0,SW,5.8,-,N/A,,Overcast,220,2013-01-28 16:55:00
12:15 PM,42.3,30.9,64,30.42,10.0,SSW,5.8,-,N/A,,Overcast,210,2013-01-28 17:15:00
12:35 PM,43.0,31.3,63,30.40,10.0,SW,5.8,-,N/A,,Overcast,230,2013-01-28 17:35:00
12:55 PM,43.7,31.6,63,30.39,10.0,SSW,5.8,-,N/A,,Overcast,210,2013-01-28 17:55:00
1:18 PM,44.6,30.2,57,30.36,10.0,SSW,5.8,-,N/A,,Overcast,210,2013-01-28 18:18:00
1:35 PM,45.5,30.6,56,30.35,10.0,SSW,9.2,-,N/A,,Overcast,200,2013-01-28 18:35:00
1:55 PM,46.0,30.7,55,30.34,10.0,SSW,6.9,-,N/A,,Overcast,200,2013-01-28 18:55:00
2:15 PM,46.8,32.0,57,30.34,10.0,WSW,6.9,-,N/A,,Overcast,240,2013-01-28 19:15:00
2:37 PM,46.4,32.0,57,30.33,10.0,SW,5.8,-,N/A,,Overcast,220,2013-01-28 19:37:00
3:16 PM,46.4,33.8,62,30.31,10.0,South,5.8,-,N/A,,Overcast,190,2013-01-28 20:16:00
3:36 PM,46.4,33.8,62,30.31,10.0,SSW,6.9,-,N/A,,Overcast,200,2013-01-28 20:36:00
3:56 PM,48.2,35.6,62,30.30,10.0,SSW,5.8,-,N/A,,Overcast,200,2013-01-28 20:56:00
4:36 PM,48.2,39.2,71,30.30,10.0,SSW,6.9,-,N/A,,Overcast,210,2013-01-28 21:36:00
4:56 PM,48.2,39.2,71,30.29,10.0,SSW,6.9,-,N/A,,Overcast,210,2013-01-28 21:56:00
5:18 PM,48.2,39.2,71,30.30,10.0,SW,5.8,-,N/A,,Overcast,220,2013-01-28 22:18:00
5:36 PM,48.2,39.2,71,30.30,10.0,SSW,5.8,-,N/A,,Overcast,200,2013-01-28 22:36:00
6:19 PM,46.4,41.0,81,30.31,10.0,SSW,5.8,-,N/A,,Overcast,210,2013-01-28 23:19:00
6:36 PM,46.4,41.0,81,30.30,10.0,South,6.9,-,N/A,,Overcast,190,2013-01-28 23:36:00
6:57 PM,46.4,42.8,87,30.30,7.0,South,5.8,-,N/A,,Overcast,190,2013-01-28 23:57:00
7:16 PM,46.4,42.8,87,30.30,7.0,SSW,6.9,-,N/A,,Overcast,210,2013-01-29 00:16:00
7:39 PM,48.2,42.8,82,30.30,7.0,SSW,4.6,-,N/A,,Overcast,200,2013-01-29 00:39:00
7:56 PM,48.2,42.8,82,30.29,7.0,SSW,5.8,-,N/A,,Overcast,200,2013-01-29 00:56:00
8:16 PM,48.2,42.8,82,30.29,7.0,SSW,5.8,-,N/A,,Overcast,200,2013-01-29 01:16:00
8:36 PM,48.2,44.6,87,30.29,7.0,SSW,5.8,-,N/A,,Overcast,200,2013-01-29 01:36:00
8:57 PM,48.2,44.6,87,30.29,7.0,SSW,8.1,-,N/A,,Overcast,210,2013-01-29 01:57:00
9:19 PM,48.2,44.6,87,30.28,7.0,South,6.9,-,N/A,,Overcast,190,2013-01-29 02:19:00
9:36 PM,48.2,44.6,87,30.29,7.0,SW,6.9,-,N/A,,Overcast,220,2013-01-29 02:36:00
9:57 PM,48.2,46.4,93,30.28,7.0,SW,6.9,-,N/A,,Overcast,220,2013-01-29 02:57:00
10:16 PM,48.2,46.4,93,30.28,7.0,SW,6.9,-,N/A,,Overcast,220,2013-01-29 03:16:00
10:57 PM,48.2,46.4,93,30.27,5.0,SW,6.9,-,N/A,,Overcast,220,2013-01-29 03:57:00
11:17 PM,48.2,46.4,93,30.27,5.0,SSW,6.9,-,N/A,,Overcast,210,2013-01-29 04:17:00
11:36 PM,48.2,46.4,93,30.27,5.0,SW,8.1,-,N/A,,Overcast,220,2013-01-29 04:36:00
11:56 PM,48.2,46.4,93,30.27,5.0,SW,5.8,-,N/A,,Overcast,220,2013-01-29 04:56:00